sensor_id;sensor_type;location;lat;lon;timestamp;P1;durP1;ratioP1;P2;durP2;ratioP2
11197;SDS011;5655;48.744;9.162;2023-05-16T00:00:32;13.17;;;11.87;;
11197;SDS011;5655;48.744;9.162;2023-05-16T00:02:59;14.83;;;12.03;;
11197;SDS011;5655;48.744;9.162;2023-05-16T00:05:26;13.38;;;11.80;;
11197;SDS011;5655;48.744;9.162;2023-05-16T00:07:52;13.80;;;12.03;;
11197;SDS011;5655;48.744;9.162;2023-05-16T00:10:17;13.53;;;12.13;;
11197;SDS011;5655;48.744;9.162;2023-05-16T00:12:43;14.10;;;12.63;;
11197;SDS011;5655;48.744;9.162;2023-05-16T00:15:09;15.03;;;13.43;;
11197;SDS011;5655;48.744;9.162;2023-05-16T00:17:38;18.23;;;13.48;;
11197;SDS011;5655;48.744;9.162;2023-05-16T00:20:05;15.27;;;13.63;;
11197;SDS011;5655;48.744;9.162;2023-05-16T00:22:36;15.30;;;13.70;;
11197;SDS011;5655;48.744;9.162;2023-05-16T00:25:02;16.83;;;14.43;;
11197;SDS011;5655;48.744;9.162;2023-05-16T00:27:28;15.88;;;14.18;;
11197;SDS011;5655;48.744;9.162;2023-05-16T00:29:54;17.47;;;15.57;;
11197;SDS011;5655;48.744;9.162;2023-05-16T00:32:19;16.75;;;14.75;;
11197;SDS011;5655;48.744;9.162;2023-05-16T00:34:45;17.60;;;15.73;;
11197;SDS011;5655;48.744;9.162;2023-05-16T00:37:10;20.43;;;18.23;;
11197;SDS011;5655;48.744;9.162;2023-05-16T00:39:35;22.17;;;18.70;;
11197;SDS011;5655;48.744;9.162;2023-05-16T00:42:01;24.67;;;19.87;;
11197;SDS011;5655;48.744;9.162;2023-05-16T00:44:26;24.10;;;20.33;;
11197;SDS011;5655;48.744;9.162;2023-05-16T00:46:52;24.50;;;20.42;;
11197;SDS011;5655;48.744;9.162;2023-05-16T00:49:18;24.27;;;20.55;;
11197;SDS011;5655;48.744;9.162;2023-05-16T00:51:43;23.20;;;20.43;;
11197;SDS011;5655;48.744;9.162;2023-05-16T00:54:09;23.20;;;20.23;;
11197;SDS011;5655;48.744;9.162;2023-05-16T00:56:34;24.40;;;21.53;;
11197;SDS011;5655;48.744;9.162;2023-05-16T00:59:00;24.88;;;22.05;;
11197;SDS011;5655;48.744;9.162;2023-05-16T01:01:26;28.03;;;23.70;;
11197;SDS011;5655;48.744;9.162;2023-05-16T01:03:52;27.05;;;21.98;;
11197;SDS011;5655;48.744;9.162;2023-05-16T01:06:18;27.20;;;23.23;;
11197;SDS011;5655;48.744;9.162;2023-05-16T01:08:43;26.57;;;22.27;;
11197;SDS011;5655;48.744;9.162;2023-05-16T01:16:46;28.90;;;24.27;;
11197;SDS011;5655;48.744;9.162;2023-05-16T01:19:22;27.20;;;23.40;;
11197;SDS011;5655;48.744;9.162;2023-05-16T01:22:28;28.93;;;25.23;;
11197;SDS011;5655;48.744;9.162;2023-05-16T01:28:10;37.28;;;27.95;;
11197;SDS011;5655;48.744;9.162;2023-05-16T01:30:38;35.37;;;27.80;;
11197;SDS011;5655;48.744;9.162;2023-05-16T01:33:07;33.20;;;28.63;;
11197;SDS011;5655;48.744;9.162;2023-05-16T01:35:34;34.92;;;29.08;;
11197;SDS011;5655;48.744;9.162;2023-05-16T01:40:58;36.88;;;29.98;;
11197;SDS011;5655;48.744;9.162;2023-05-16T01:43:29;37.60;;;29.92;;
11197;SDS011;5655;48.744;9.162;2023-05-16T01:46:10;38.05;;;31.80;;
11197;SDS011;5655;48.744;9.162;2023-05-16T01:48:40;43.55;;;32.45;;
11197;SDS011;5655;48.744;9.162;2023-05-16T01:51:13;41.23;;;32.93;;
11197;SDS011;5655;48.744;9.162;2023-05-16T01:53:38;42.03;;;33.78;;
11197;SDS011;5655;48.744;9.162;2023-05-16T01:56:04;44.55;;;34.95;;
11197;SDS011;5655;48.744;9.162;2023-05-16T01:58:35;47.43;;;36.33;;
11197;SDS011;5655;48.744;9.162;2023-05-16T02:01:01;45.70;;;35.17;;
11197;SDS011;5655;48.744;9.162;2023-05-16T02:03:28;46.85;;;36.17;;
11197;SDS011;5655;48.744;9.162;2023-05-16T02:05:54;47.38;;;36.08;;
11197;SDS011;5655;48.744;9.162;2023-05-16T02:08:20;46.25;;;36.58;;
11197;SDS011;5655;48.744;9.162;2023-05-16T02:10:46;49.57;;;36.97;;
11197;SDS011;5655;48.744;9.162;2023-05-16T02:13:11;48.43;;;37.50;;
11197;SDS011;5655;48.744;9.162;2023-05-16T02:15:36;49.00;;;37.73;;
11197;SDS011;5655;48.744;9.162;2023-05-16T02:18:02;47.97;;;37.60;;
11197;SDS011;5655;48.744;9.162;2023-05-16T02:20:27;49.63;;;36.80;;
11197;SDS011;5655;48.744;9.162;2023-05-16T02:22:52;50.10;;;36.00;;
11197;SDS011;5655;48.744;9.162;2023-05-16T02:25:18;49.67;;;36.77;;
11197;SDS011;5655;48.744;9.162;2023-05-16T02:27:43;53.73;;;38.30;;
11197;SDS011;5655;48.744;9.162;2023-05-16T02:30:09;46.23;;;36.23;;
11197;SDS011;5655;48.744;9.162;2023-05-16T02:32:36;51.70;;;38.53;;
11197;SDS011;5655;48.744;9.162;2023-05-16T02:35:03;50.63;;;37.58;;
11197;SDS011;5655;48.744;9.162;2023-05-16T02:37:28;50.90;;;37.70;;
11197;SDS011;5655;48.744;9.162;2023-05-16T02:39:54;52.30;;;37.85;;
11197;SDS011;5655;48.744;9.162;2023-05-16T02:42:19;49.15;;;37.05;;
11197;SDS011;5655;48.744;9.162;2023-05-16T02:44:44;53.25;;;37.83;;
11197;SDS011;5655;48.744;9.162;2023-05-16T02:47:09;49.73;;;36.47;;
11197;SDS011;5655;48.744;9.162;2023-05-16T02:49:35;51.67;;;37.23;;
11197;SDS011;5655;48.744;9.162;2023-05-16T02:52:00;48.20;;;36.63;;
11197;SDS011;5655;48.744;9.162;2023-05-16T02:54:25;50.97;;;36.17;;
11197;SDS011;5655;48.744;9.162;2023-05-16T02:56:51;47.70;;;36.83;;
11197;SDS011;5655;48.744;9.162;2023-05-16T02:59:16;53.53;;;37.87;;
11197;SDS011;5655;48.744;9.162;2023-05-16T03:01:41;49.90;;;36.80;;
11197;SDS011;5655;48.744;9.162;2023-05-16T03:04:07;51.73;;;37.17;;
11197;SDS011;5655;48.744;9.162;2023-05-16T03:06:32;51.77;;;36.33;;
11197;SDS011;5655;48.744;9.162;2023-05-16T03:08:58;51.72;;;36.88;;
11197;SDS011;5655;48.744;9.162;2023-05-16T03:11:23;52.40;;;37.20;;
11197;SDS011;5655;48.744;9.162;2023-05-16T03:13:49;51.53;;;37.08;;
11197;SDS011;5655;48.744;9.162;2023-05-16T03:16:15;52.03;;;36.87;;
11197;SDS011;5655;48.744;9.162;2023-05-16T03:18:41;51.83;;;37.65;;
11197;SDS011;5655;48.744;9.162;2023-05-16T03:21:07;49.50;;;37.23;;
11197;SDS011;5655;48.744;9.162;2023-05-16T03:23:32;53.78;;;38.58;;
11197;SDS011;5655;48.744;9.162;2023-05-16T03:25:58;52.03;;;37.63;;
11197;SDS011;5655;48.744;9.162;2023-05-16T03:28:23;54.80;;;40.07;;
11197;SDS011;5655;48.744;9.162;2023-05-16T03:30:49;55.85;;;39.17;;
11197;SDS011;5655;48.744;9.162;2023-05-16T03:33:14;57.20;;;41.40;;
11197;SDS011;5655;48.744;9.162;2023-05-16T03:35:40;57.63;;;40.30;;
11197;SDS011;5655;48.744;9.162;2023-05-16T03:38:06;61.65;;;41.97;;
11197;SDS011;5655;48.744;9.162;2023-05-16T03:40:31;63.10;;;43.10;;
11197;SDS011;5655;48.744;9.162;2023-05-16T03:42:57;65.07;;;43.87;;
11197;SDS011;5655;48.744;9.162;2023-05-16T03:45:22;62.85;;;42.38;;
11197;SDS011;5655;48.744;9.162;2023-05-16T03:47:48;64.97;;;43.60;;
11197;SDS011;5655;48.744;9.162;2023-05-16T03:50:13;64.60;;;43.07;;
11197;SDS011;5655;48.744;9.162;2023-05-16T03:52:39;66.38;;;44.47;;
11197;SDS011;5655;48.744;9.162;2023-05-16T03:55:04;63.03;;;44.00;;
11197;SDS011;5655;48.744;9.162;2023-05-16T03:57:30;70.23;;;45.73;;
11197;SDS011;5655;48.744;9.162;2023-05-16T03:59:56;67.47;;;44.67;;
11197;SDS011;5655;48.744;9.162;2023-05-16T04:02:22;69.70;;;45.75;;
11197;SDS011;5655;48.744;9.162;2023-05-16T04:04:47;74.63;;;47.00;;
11197;SDS011;5655;48.744;9.162;2023-05-16T04:07:12;76.20;;;46.33;;
11197;SDS011;5655;48.744;9.162;2023-05-16T04:09:38;73.83;;;47.73;;
11197;SDS011;5655;48.744;9.162;2023-05-16T04:12:03;75.23;;;48.17;;
11197;SDS011;5655;48.744;9.162;2023-05-16T04:14:29;73.87;;;48.20;;
11197;SDS011;5655;48.744;9.162;2023-05-16T04:16:54;73.97;;;47.37;;
11197;SDS011;5655;48.744;9.162;2023-05-16T04:19:20;74.65;;;47.85;;
11197;SDS011;5655;48.744;9.162;2023-05-16T04:21:45;79.20;;;49.00;;
11197;SDS011;5655;48.744;9.162;2023-05-16T04:24:10;77.80;;;48.47;;
11197;SDS011;5655;48.744;9.162;2023-05-16T04:26:36;79.80;;;48.60;;
11197;SDS011;5655;48.744;9.162;2023-05-16T04:29:01;75.60;;;47.47;;
11197;SDS011;5655;48.744;9.162;2023-05-16T04:31:27;78.78;;;47.75;;
11197;SDS011;5655;48.744;9.162;2023-05-16T04:33:52;75.67;;;46.77;;
11197;SDS011;5655;48.744;9.162;2023-05-16T04:36:18;74.37;;;47.67;;
11197;SDS011;5655;48.744;9.162;2023-05-16T04:38:43;77.00;;;47.20;;
11197;SDS011;5655;48.744;9.162;2023-05-16T04:41:11;73.78;;;46.95;;
11197;SDS011;5655;48.744;9.162;2023-05-16T04:43:37;75.68;;;48.22;;
11197;SDS011;5655;48.744;9.162;2023-05-16T04:46:02;74.07;;;47.08;;
11197;SDS011;5655;48.744;9.162;2023-05-16T04:48:28;80.03;;;48.47;;
11197;SDS011;5655;48.744;9.162;2023-05-16T04:50:53;76.27;;;46.77;;
11197;SDS011;5655;48.744;9.162;2023-05-16T04:53:19;75.47;;;47.40;;
11197;SDS011;5655;48.744;9.162;2023-05-16T04:55:44;74.07;;;46.00;;
11197;SDS011;5655;48.744;9.162;2023-05-16T04:58:10;76.70;;;48.07;;
11197;SDS011;5655;48.744;9.162;2023-05-16T05:00:37;76.35;;;47.88;;
11197;SDS011;5655;48.744;9.162;2023-05-16T05:03:03;75.22;;;47.92;;
11197;SDS011;5655;48.744;9.162;2023-05-16T05:05:28;70.97;;;45.35;;
11197;SDS011;5655;48.744;9.162;2023-05-16T05:07:53;71.73;;;47.70;;
11197;SDS011;5655;48.744;9.162;2023-05-16T05:10:19;74.20;;;47.17;;
11197;SDS011;5655;48.744;9.162;2023-05-16T05:12:44;78.57;;;48.23;;
11197;SDS011;5655;48.744;9.162;2023-05-16T05:15:09;77.00;;;48.30;;
11197;SDS011;5655;48.744;9.162;2023-05-16T05:17:35;76.67;;;49.27;;
11197;SDS011;5655;48.744;9.162;2023-05-16T05:20:01;77.13;;;48.83;;
11197;SDS011;5655;48.744;9.162;2023-05-16T05:22:30;76.20;;;47.80;;
11197;SDS011;5655;48.744;9.162;2023-05-16T05:24:56;76.95;;;47.30;;
11197;SDS011;5655;48.744;9.162;2023-05-16T05:27:21;75.00;;;47.77;;
11197;SDS011;5655;48.744;9.162;2023-05-16T05:29:46;70.73;;;44.97;;
11197;SDS011;5655;48.744;9.162;2023-05-16T05:32:12;80.53;;;54.40;;
11197;SDS011;5655;48.744;9.162;2023-05-16T05:34:37;71.37;;;46.47;;
11197;SDS011;5655;48.744;9.162;2023-05-16T05:37:03;69.67;;;44.13;;
11197;SDS011;5655;48.744;9.162;2023-05-16T05:39:28;67.20;;;44.40;;
11197;SDS011;5655;48.744;9.162;2023-05-16T05:41:53;68.87;;;45.77;;
11197;SDS011;5655;48.744;9.162;2023-05-16T05:44:19;66.33;;;45.07;;
11197;SDS011;5655;48.744;9.162;2023-05-16T05:46:45;69.13;;;45.37;;
11197;SDS011;5655;48.744;9.162;2023-05-16T05:49:10;66.55;;;44.50;;
11197;SDS011;5655;48.744;9.162;2023-05-16T05:51:36;63.90;;;43.60;;
11197;SDS011;5655;48.744;9.162;2023-05-16T05:54:01;63.00;;;43.40;;
11197;SDS011;5655;48.744;9.162;2023-05-16T05:56:27;65.63;;;43.67;;
11197;SDS011;5655;48.744;9.162;2023-05-16T05:58:52;63.03;;;43.53;;
11197;SDS011;5655;48.744;9.162;2023-05-16T06:01:18;63.97;;;42.70;;
11197;SDS011;5655;48.744;9.162;2023-05-16T06:03:45;65.40;;;43.75;;
11197;SDS011;5655;48.744;9.162;2023-05-16T06:06:10;61.70;;;42.73;;
11197;SDS011;5655;48.744;9.162;2023-05-16T06:08:36;64.87;;;43.47;;
11197;SDS011;5655;48.744;9.162;2023-05-16T06:11:01;66.43;;;42.67;;
11197;SDS011;5655;48.744;9.162;2023-05-16T06:13:26;65.45;;;43.50;;
11197;SDS011;5655;48.744;9.162;2023-05-16T06:15:52;56.28;;;39.33;;
11197;SDS011;5655;48.744;9.162;2023-05-16T06:18:18;56.53;;;40.05;;
11197;SDS011;5655;48.744;9.162;2023-05-16T06:20:44;56.78;;;39.10;;
11197;SDS011;5655;48.744;9.162;2023-05-16T06:23:10;57.67;;;40.73;;
11197;SDS011;5655;48.744;9.162;2023-05-16T06:25:35;59.73;;;40.33;;
11197;SDS011;5655;48.744;9.162;2023-05-16T06:28:00;57.77;;;40.33;;
11197;SDS011;5655;48.744;9.162;2023-05-16T06:30:26;59.37;;;41.40;;
11197;SDS011;5655;48.744;9.162;2023-05-16T06:32:51;63.80;;;42.20;;
11197;SDS011;5655;48.744;9.162;2023-05-16T06:35:16;61.53;;;40.60;;
11197;SDS011;5655;48.744;9.162;2023-05-16T06:37:41;60.87;;;41.07;;
11197;SDS011;5655;48.744;9.162;2023-05-16T06:40:07;58.23;;;40.20;;
11197;SDS011;5655;48.744;9.162;2023-05-16T06:42:32;56.15;;;39.83;;
11197;SDS011;5655;48.744;9.162;2023-05-16T06:44:58;49.05;;;31.88;;
11197;SDS011;5655;48.744;9.162;2023-05-16T06:47:23;56.15;;;33.47;;
11197;SDS011;5655;48.744;9.162;2023-05-16T06:49:49;52.33;;;33.08;;
11197;SDS011;5655;48.744;9.162;2023-05-16T06:52:14;51.00;;;31.50;;
11197;SDS011;5655;48.744;9.162;2023-05-16T06:54:40;51.63;;;30.90;;
11197;SDS011;5655;48.744;9.162;2023-05-16T06:57:05;49.25;;;30.85;;
11197;SDS011;5655;48.744;9.162;2023-05-16T06:59:32;47.38;;;30.02;;
11197;SDS011;5655;48.744;9.162;2023-05-16T07:01:58;44.47;;;29.65;;
11197;SDS011;5655;48.744;9.162;2023-05-16T07:04:24;48.75;;;30.58;;
11197;SDS011;5655;48.744;9.162;2023-05-16T07:06:50;51.42;;;30.02;;
11197;SDS011;5655;48.744;9.162;2023-05-16T07:09:15;51.38;;;31.13;;
11197;SDS011;5655;48.744;9.162;2023-05-16T07:11:41;46.88;;;29.55;;
11197;SDS011;5655;48.744;9.162;2023-05-16T07:14:06;48.70;;;34.43;;
11197;SDS011;5655;48.744;9.162;2023-05-16T07:16:31;49.10;;;34.77;;
11197;SDS011;5655;48.744;9.162;2023-05-16T07:18:57;46.53;;;33.43;;
11197;SDS011;5655;48.744;9.162;2023-05-16T07:21:22;44.77;;;33.40;;
11197;SDS011;5655;48.744;9.162;2023-05-16T07:23:47;44.17;;;31.57;;
11197;SDS011;5655;48.744;9.162;2023-05-16T07:26:13;40.77;;;30.50;;
11197;SDS011;5655;48.744;9.162;2023-05-16T07:28:38;38.83;;;29.20;;
11197;SDS011;5655;48.744;9.162;2023-05-16T07:31:03;37.70;;;28.27;;
11197;SDS011;5655;48.744;9.162;2023-05-16T07:33:30;35.90;;;27.45;;
11197;SDS011;5655;48.744;9.162;2023-05-16T07:35:55;34.77;;;25.13;;
11197;SDS011;5655;48.744;9.162;2023-05-16T07:38:21;33.47;;;25.57;;
11197;SDS011;5655;48.744;9.162;2023-05-16T07:40:46;30.00;;;23.73;;
11197;SDS011;5655;48.744;9.162;2023-05-16T07:43:11;27.20;;;23.23;;
11197;SDS011;5655;48.744;9.162;2023-05-16T07:45:37;26.67;;;21.97;;
11197;SDS011;5655;48.744;9.162;2023-05-16T07:48:02;23.70;;;19.05;;
11197;SDS011;5655;48.744;9.162;2023-05-16T07:50:28;21.30;;;18.13;;
11197;SDS011;5655;48.744;9.162;2023-05-16T07:52:53;18.67;;;15.93;;
11197;SDS011;5655;48.744;9.162;2023-05-16T07:55:18;15.73;;;13.90;;
11197;SDS011;5655;48.744;9.162;2023-05-16T07:57:46;14.38;;;12.88;;
11197;SDS011;5655;48.744;9.162;2023-05-16T08:00:12;15.38;;;12.90;;
11197;SDS011;5655;48.744;9.162;2023-05-16T08:02:37;14.57;;;12.63;;
11197;SDS011;5655;48.744;9.162;2023-05-16T08:05:03;14.67;;;12.77;;
11197;SDS011;5655;48.744;9.162;2023-05-16T08:07:29;17.05;;;14.30;;
11197;SDS011;5655;48.744;9.162;2023-05-16T08:09:55;16.20;;;14.40;;
11197;SDS011;5655;48.744;9.162;2023-05-16T08:12:20;16.03;;;14.37;;
11197;SDS011;5655;48.744;9.162;2023-05-16T08:14:46;16.27;;;14.57;;
11197;SDS011;5655;48.744;9.162;2023-05-16T08:17:11;17.80;;;15.70;;
11197;SDS011;5655;48.744;9.162;2023-05-16T08:19:36;16.30;;;14.60;;
11197;SDS011;5655;48.744;9.162;2023-05-16T08:22:01;17.30;;;14.63;;
11197;SDS011;5655;48.744;9.162;2023-05-16T08:24:27;17.25;;;14.80;;
11197;SDS011;5655;48.744;9.162;2023-05-16T08:26:52;18.27;;;15.63;;
11197;SDS011;5655;48.744;9.162;2023-05-16T08:29:18;20.55;;;16.55;;
11197;SDS011;5655;48.744;9.162;2023-05-16T08:31:43;18.55;;;16.55;;
11197;SDS011;5655;48.744;9.162;2023-05-16T08:34:08;20.47;;;17.27;;
11197;SDS011;5655;48.744;9.162;2023-05-16T08:36:35;19.53;;;17.40;;
11197;SDS011;5655;48.744;9.162;2023-05-16T08:39:00;19.75;;;17.48;;
11197;SDS011;5655;48.744;9.162;2023-05-16T08:41:26;20.20;;;18.10;;
11197;SDS011;5655;48.744;9.162;2023-05-16T08:43:51;21.90;;;17.65;;
11197;SDS011;5655;48.744;9.162;2023-05-16T08:46:18;20.15;;;17.13;;
11197;SDS011;5655;48.744;9.162;2023-05-16T08:48:46;21.00;;;17.70;;
11197;SDS011;5655;48.744;9.162;2023-05-16T08:51:15;24.13;;;19.63;;
11197;SDS011;5655;48.744;9.162;2023-05-16T08:53:44;21.55;;;18.23;;
11197;SDS011;5655;48.744;9.162;2023-05-16T08:56:13;23.63;;;19.05;;
11197;SDS011;5655;48.744;9.162;2023-05-16T08:58:41;24.10;;;19.40;;
11197;SDS011;5655;48.744;9.162;2023-05-16T09:01:06;23.63;;;19.35;;
11197;SDS011;5655;48.744;9.162;2023-05-16T09:03:36;23.73;;;20.33;;
11197;SDS011;5655;48.744;9.162;2023-05-16T09:06:05;24.00;;;20.08;;
11197;SDS011;5655;48.744;9.162;2023-05-16T09:08:31;25.90;;;20.63;;
11197;SDS011;5655;48.744;9.162;2023-05-16T09:10:57;27.03;;;22.57;;
11197;SDS011;5655;48.744;9.162;2023-05-16T09:13:23;33.13;;;23.27;;
11197;SDS011;5655;48.744;9.162;2023-05-16T09:16:09;28.92;;;22.95;;
11197;SDS011;5655;48.744;9.162;2023-05-16T09:18:34;31.77;;;23.42;;
11197;SDS011;5655;48.744;9.162;2023-05-16T09:21:02;28.17;;;21.43;;
11197;SDS011;5655;48.744;9.162;2023-05-16T09:23:28;28.35;;;22.02;;
11197;SDS011;5655;48.744;9.162;2023-05-16T09:25:54;28.73;;;22.97;;
11197;SDS011;5655;48.744;9.162;2023-05-16T09:28:19;28.50;;;22.83;;
11197;SDS011;5655;48.744;9.162;2023-05-16T09:30:45;28.80;;;24.03;;
11197;SDS011;5655;48.744;9.162;2023-05-16T09:33:10;31.27;;;24.25;;
11197;SDS011;5655;48.744;9.162;2023-05-16T09:35:36;33.90;;;25.52;;
11197;SDS011;5655;48.744;9.162;2023-05-16T09:38:02;32.00;;;25.37;;
11197;SDS011;5655;48.744;9.162;2023-05-16T09:40:27;31.90;;;25.20;;
11197;SDS011;5655;48.744;9.162;2023-05-16T09:43:00;34.47;;;25.60;;
11197;SDS011;5655;48.744;9.162;2023-05-16T09:45:29;39.63;;;27.92;;
11197;SDS011;5655;48.744;9.162;2023-05-16T09:48:00;36.63;;;26.58;;
11197;SDS011;5655;48.744;9.162;2023-05-16T09:50:28;32.40;;;25.83;;
11197;SDS011;5655;48.744;9.162;2023-05-16T09:52:53;31.92;;;25.65;;
11197;SDS011;5655;48.744;9.162;2023-05-16T09:55:18;33.90;;;26.50;;
11197;SDS011;5655;48.744;9.162;2023-05-16T09:57:44;33.87;;;26.07;;
11197;SDS011;5655;48.744;9.162;2023-05-16T10:00:10;34.08;;;25.67;;
11197;SDS011;5655;48.744;9.162;2023-05-16T10:02:37;34.30;;;26.52;;
11197;SDS011;5655;48.744;9.162;2023-05-16T10:05:05;36.10;;;26.30;;
11197;SDS011;5655;48.744;9.162;2023-05-16T10:07:31;32.33;;;25.60;;
11197;SDS011;5655;48.744;9.162;2023-05-16T10:09:59;30.38;;;23.80;;
11197;SDS011;5655;48.744;9.162;2023-05-16T10:12:29;29.38;;;23.88;;
11197;SDS011;5655;48.744;9.162;2023-05-16T10:14:59;30.85;;;23.60;;
11197;SDS011;5655;48.744;9.162;2023-05-16T10:17:26;28.40;;;22.95;;
11197;SDS011;5655;48.744;9.162;2023-05-16T10:19:56;30.07;;;23.70;;
11197;SDS011;5655;48.744;9.162;2023-05-16T10:22:23;31.77;;;25.10;;
11197;SDS011;5655;48.744;9.162;2023-05-16T10:24:53;33.75;;;25.27;;
11197;SDS011;5655;48.744;9.162;2023-05-16T10:27:25;31.05;;;25.00;;
11197;SDS011;5655;48.744;9.162;2023-05-16T10:29:51;32.47;;;23.93;;
11197;SDS011;5655;48.744;9.162;2023-05-16T10:32:17;30.10;;;23.70;;
11197;SDS011;5655;48.744;9.162;2023-05-16T10:34:42;31.50;;;24.05;;
11197;SDS011;5655;48.744;9.162;2023-05-16T10:37:10;30.80;;;23.33;;
11197;SDS011;5655;48.744;9.162;2023-05-16T10:39:35;30.33;;;24.20;;
11197;SDS011;5655;48.744;9.162;2023-05-16T10:42:04;27.50;;;22.27;;
11197;SDS011;5655;48.744;9.162;2023-05-16T10:44:31;27.67;;;22.30;;
11197;SDS011;5655;48.744;9.162;2023-05-16T10:46:58;28.15;;;21.60;;
11197;SDS011;5655;48.744;9.162;2023-05-16T10:49:24;26.83;;;20.20;;
11197;SDS011;5655;48.744;9.162;2023-05-16T10:54:37;27.65;;;21.30;;
11197;SDS011;5655;48.744;9.162;2023-05-16T10:57:08;26.88;;;21.63;;
11197;SDS011;5655;48.744;9.162;2023-05-16T10:59:42;28.05;;;21.10;;
11197;SDS011;5655;48.744;9.162;2023-05-16T11:04:53;25.95;;;19.27;;
11197;SDS011;5655;48.744;9.162;2023-05-16T11:07:23;28.33;;;19.45;;
11197;SDS011;5655;48.744;9.162;2023-05-16T11:12:43;26.98;;;18.88;;
11197;SDS011;5655;48.744;9.162;2023-05-16T11:17:49;26.67;;;19.42;;
11197;SDS011;5655;48.744;9.162;2023-05-16T11:20:25;26.80;;;19.77;;
11197;SDS011;5655;48.744;9.162;2023-05-16T11:25:45;31.63;;;21.63;;
11197;SDS011;5655;48.744;9.162;2023-05-16T11:28:13;30.55;;;21.20;;
11197;SDS011;5655;48.744;9.162;2023-05-16T11:30:42;29.27;;;21.47;;
11197;SDS011;5655;48.744;9.162;2023-05-16T11:33:09;32.45;;;21.65;;
11197;SDS011;5655;48.744;9.162;2023-05-16T11:35:36;32.75;;;21.70;;
11197;SDS011;5655;48.744;9.162;2023-05-16T11:38:02;28.85;;;20.17;;
11197;SDS011;5655;48.744;9.162;2023-05-16T11:40:28;28.75;;;20.98;;
11197;SDS011;5655;48.744;9.162;2023-05-16T11:42:56;28.90;;;20.03;;
11197;SDS011;5655;48.744;9.162;2023-05-16T11:45:24;26.92;;;18.42;;
11197;SDS011;5655;48.744;9.162;2023-05-16T11:47:50;25.53;;;18.17;;
11197;SDS011;5655;48.744;9.162;2023-05-16T11:52:48;19.23;;;14.90;;
11197;SDS011;5655;48.744;9.162;2023-05-16T11:55:22;20.73;;;15.63;;
11197;SDS011;5655;48.744;9.162;2023-05-16T11:57:51;20.50;;;14.55;;
11197;SDS011;5655;48.744;9.162;2023-05-16T12:00:18;19.13;;;13.68;;
11197;SDS011;5655;48.744;9.162;2023-05-16T12:02:46;18.45;;;13.88;;
11197;SDS011;5655;48.744;9.162;2023-05-16T12:05:13;16.98;;;13.15;;
11197;SDS011;5655;48.744;9.162;2023-05-16T12:07:39;17.95;;;14.05;;
11197;SDS011;5655;48.744;9.162;2023-05-16T12:10:06;18.00;;;13.85;;
11197;SDS011;5655;48.744;9.162;2023-05-16T12:12:33;18.65;;;14.00;;
11197;SDS011;5655;48.744;9.162;2023-05-16T12:14:59;18.07;;;13.63;;
11197;SDS011;5655;48.744;9.162;2023-05-16T12:17:25;18.48;;;13.18;;
11197;SDS011;5655;48.744;9.162;2023-05-16T12:19:51;18.50;;;14.47;;
11197;SDS011;5655;48.744;9.162;2023-05-16T12:22:16;18.15;;;14.02;;
11197;SDS011;5655;48.744;9.162;2023-05-16T12:24:44;19.40;;;14.32;;
11197;SDS011;5655;48.744;9.162;2023-05-16T12:27:10;19.08;;;14.43;;
11197;SDS011;5655;48.744;9.162;2023-05-16T12:29:36;17.00;;;13.88;;
11197;SDS011;5655;48.744;9.162;2023-05-16T12:32:01;15.67;;;12.50;;
11197;SDS011;5655;48.744;9.162;2023-05-16T12:34:27;14.70;;;12.10;;
11197;SDS011;5655;48.744;9.162;2023-05-16T12:36:54;17.13;;;12.50;;
11197;SDS011;5655;48.744;9.162;2023-05-16T12:39:20;14.23;;;11.73;;
11197;SDS011;5655;48.744;9.162;2023-05-16T12:41:47;12.88;;;10.55;;
11197;SDS011;5655;48.744;9.162;2023-05-16T12:44:13;12.90;;;9.90;;
11197;SDS011;5655;48.744;9.162;2023-05-16T12:46:43;12.60;;;9.40;;
11197;SDS011;5655;48.744;9.162;2023-05-16T12:49:10;11.77;;;9.07;;
11197;SDS011;5655;48.744;9.162;2023-05-16T12:51:36;10.50;;;8.45;;
11197;SDS011;5655;48.744;9.162;2023-05-16T12:54:10;10.80;;;8.30;;
11197;SDS011;5655;48.744;9.162;2023-05-16T12:56:39;10.27;;;7.88;;
11197;SDS011;5655;48.744;9.162;2023-05-16T12:59:05;11.77;;;8.00;;
11197;SDS011;5655;48.744;9.162;2023-05-16T13:01:31;8.82;;;7.40;;
11197;SDS011;5655;48.744;9.162;2023-05-16T13:03:58;7.82;;;7.03;;
11197;SDS011;5655;48.744;9.162;2023-05-16T13:06:24;8.13;;;7.32;;
11197;SDS011;5655;48.744;9.162;2023-05-16T13:08:50;9.32;;;7.03;;
11197;SDS011;5655;48.744;9.162;2023-05-16T13:11:16;8.27;;;7.30;;
11197;SDS011;5655;48.744;9.162;2023-05-16T13:13:41;8.57;;;7.20;;
11197;SDS011;5655;48.744;9.162;2023-05-16T13:16:06;8.00;;;7.20;;
11197;SDS011;5655;48.744;9.162;2023-05-16T13:18:31;7.83;;;7.00;;
11197;SDS011;5655;48.744;9.162;2023-05-16T13:20:58;7.57;;;6.78;;
11197;SDS011;5655;48.744;9.162;2023-05-16T13:23:23;6.87;;;6.20;;
11197;SDS011;5655;48.744;9.162;2023-05-16T13:25:48;7.17;;;6.47;;
11197;SDS011;5655;48.744;9.162;2023-05-16T13:28:14;8.03;;;6.17;;
11197;SDS011;5655;48.744;9.162;2023-05-16T13:30:39;6.60;;;6.00;;
11197;SDS011;5655;48.744;9.162;2023-05-16T13:33:05;6.47;;;5.70;;
11197;SDS011;5655;48.744;9.162;2023-05-16T13:35:30;6.20;;;5.60;;
11197;SDS011;5655;48.744;9.162;2023-05-16T13:37:55;7.63;;;5.57;;
11197;SDS011;5655;48.744;9.162;2023-05-16T13:40:21;7.40;;;5.00;;
11197;SDS011;5655;48.744;9.162;2023-05-16T13:42:47;5.50;;;5.00;;
11197;SDS011;5655;48.744;9.162;2023-05-16T13:45:13;7.53;;;4.82;;
11197;SDS011;5655;48.744;9.162;2023-05-16T13:47:38;6.38;;;4.40;;
11197;SDS011;5655;48.744;9.162;2023-05-16T13:50:03;5.20;;;4.10;;
11197;SDS011;5655;48.744;9.162;2023-05-16T13:52:33;5.43;;;4.80;;
11197;SDS011;5655;48.744;9.162;2023-05-16T13:54:59;4.50;;;4.10;;
11197;SDS011;5655;48.744;9.162;2023-05-16T13:57:24;7.67;;;4.13;;
11197;SDS011;5655;48.744;9.162;2023-05-16T13:59:51;5.90;;;4.30;;
11197;SDS011;5655;48.744;9.162;2023-05-16T14:02:17;5.00;;;3.95;;
11197;SDS011;5655;48.744;9.162;2023-05-16T14:04:42;4.67;;;4.17;;
11197;SDS011;5655;48.744;9.162;2023-05-16T14:07:07;4.70;;;3.80;;
11197;SDS011;5655;48.744;9.162;2023-05-16T14:09:32;6.67;;;4.30;;
11197;SDS011;5655;48.744;9.162;2023-05-16T14:11:59;4.10;;;3.70;;
11197;SDS011;5655;48.744;9.162;2023-05-16T14:14:26;4.05;;;3.35;;
11197;SDS011;5655;48.744;9.162;2023-05-16T14:16:52;5.03;;;3.70;;
11197;SDS011;5655;48.744;9.162;2023-05-16T14:19:17;7.35;;;4.90;;
11197;SDS011;5655;48.744;9.162;2023-05-16T14:21:42;7.57;;;3.72;;
11197;SDS011;5655;48.744;9.162;2023-05-16T14:24:08;5.43;;;3.78;;
11197;SDS011;5655;48.744;9.162;2023-05-16T14:26:33;4.68;;;3.88;;
11197;SDS011;5655;48.744;9.162;2023-05-16T14:28:58;4.20;;;3.80;;
11197;SDS011;5655;48.744;9.162;2023-05-16T14:31:24;5.00;;;3.60;;
11197;SDS011;5655;48.744;9.162;2023-05-16T14:33:50;5.50;;;3.63;;
11197;SDS011;5655;48.744;9.162;2023-05-16T14:36:15;6.45;;;3.85;;
11197;SDS011;5655;48.744;9.162;2023-05-16T14:38:41;5.40;;;3.92;;
11197;SDS011;5655;48.744;9.162;2023-05-16T14:41:06;3.67;;;3.38;;
11197;SDS011;5655;48.744;9.162;2023-05-16T14:43:31;5.45;;;3.40;;
11197;SDS011;5655;48.744;9.162;2023-05-16T14:45:56;4.88;;;3.60;;
11197;SDS011;5655;48.744;9.162;2023-05-16T14:48:22;4.70;;;3.42;;
11197;SDS011;5655;48.744;9.162;2023-05-16T14:50:47;3.33;;;2.75;;
11197;SDS011;5655;48.744;9.162;2023-05-16T14:53:13;4.50;;;3.20;;
11197;SDS011;5655;48.744;9.162;2023-05-16T14:55:38;4.78;;;3.47;;
11197;SDS011;5655;48.744;9.162;2023-05-16T14:58:04;5.05;;;2.80;;
11197;SDS011;5655;48.744;9.162;2023-05-16T15:00:29;4.38;;;2.35;;